createdAt,value
2022-09-29T00:00:51.759Z,5.18
2022-09-29T00:03:19.591Z,5.24
2022-09-29T00:05:50.865Z,5.22
2022-09-29T00:08:19.087Z,5.28
2022-09-29T00:10:47.426Z,5.28
2022-09-29T00:13:15.806Z,5.23
2022-09-29T00:15:43.178Z,5.28
2022-09-29T00:18:14.951Z,5.28
2022-09-29T00:20:42.463Z,5.20
2022-09-29T00:23:10.040Z,5.14
2022-09-29T00:25:37.329Z,5.13
2022-09-29T00:28:04.491Z,5.16
2022-09-29T00:30:31.709Z,5.14
2022-09-29T00:32:58.898Z,5.12
2022-09-29T00:35:26.142Z,5.14
2022-09-29T00:37:53.353Z,5.16
2022-09-29T00:40:20.649Z,5.14
2022-09-29T00:42:48.142Z,5.18
2022-09-29T00:45:24.489Z,5.27
2022-09-29T00:48:13.134Z,5.35
2022-09-29T00:50:49.001Z,5.38
2022-09-29T00:53:21.561Z,5.24
2022-09-29T00:56:09.212Z,5.11
2022-09-29T00:58:42.719Z,5.05
2022-09-29T01:01:12.220Z,4.95
2022-09-29T01:03:44.467Z,4.89
2022-09-29T01:06:22.138Z,4.89
2022-09-29T01:09:13.241Z,4.96
2022-09-29T01:11:40.674Z,5.11
2022-09-29T01:14:10.006Z,4.99
2022-09-29T01:16:42.148Z,4.93
2022-09-29T01:19:30.352Z,5.02
2022-09-29T01:22:00.482Z,4.96
2022-09-29T01:24:49.603Z,4.91
2022-09-29T01:27:25.907Z,4.95
2022-09-29T01:30:17.636Z,4.87
2022-09-29T01:32:54.114Z,5.00
2022-09-29T01:35:35.161Z,4.94
2022-09-29T01:38:31.146Z,4.90
2022-09-29T01:41:33.414Z,4.83
2022-09-29T01:44:13.440Z,4.83
2022-09-29T01:46:48.386Z,4.85
2022-09-29T01:49:16.585Z,4.81
2022-09-29T01:51:54.447Z,4.86
2022-09-29T01:54:28.788Z,4.87
2022-09-29T01:57:07.596Z,4.89
2022-09-29T02:00:09.236Z,4.77
2022-09-29T02:02:54.240Z,4.70
2022-09-29T02:05:41.195Z,4.65
2022-09-29T02:08:43.072Z,4.64
2022-09-29T02:11:13.046Z,4.54
2022-09-29T02:14:05.471Z,4.45
2022-09-29T02:16:38.534Z,4.39
2022-09-29T02:19:15.199Z,4.37
2022-09-29T02:21:44.098Z,4.47
2022-09-29T02:24:12.334Z,4.50
2022-09-29T02:26:41.599Z,4.46
2022-09-29T02:29:09.524Z,4.46
2022-09-29T02:31:37.803Z,4.31
2022-09-29T02:34:08.988Z,4.31
2022-09-29T02:36:58.001Z,4.31
2022-09-29T02:39:32.162Z,4.36
2022-09-29T02:42:21.277Z,4.38
2022-09-29T02:45:05.653Z,4.50
2022-09-29T02:47:49.515Z,4.52
2022-09-29T02:50:40.019Z,4.61
2022-09-29T02:53:35.372Z,4.60
2022-09-29T02:56:36.631Z,4.62
2022-09-29T02:59:12.286Z,4.66
2022-09-29T03:01:56.719Z,4.84
2022-09-29T03:04:26.424Z,4.82
2022-09-29T03:06:54.322Z,4.84
2022-09-29T03:09:21.421Z,4.88
2022-09-29T03:11:48.538Z,4.94
2022-09-29T03:14:16.010Z,4.96
2022-09-29T03:16:44.257Z,4.96
2022-09-29T03:19:11.520Z,4.92
2022-09-29T03:21:38.730Z,4.98
2022-09-29T03:24:06.230Z,5.01
2022-09-29T03:26:33.719Z,4.99
2022-09-29T03:29:01.098Z,4.93
2022-09-29T03:31:28.484Z,5.00
2022-09-29T03:33:55.967Z,4.95
2022-09-29T03:36:23.219Z,4.86
2022-09-29T03:38:50.369Z,4.89
2022-09-29T03:41:17.529Z,4.86
2022-09-29T03:43:44.773Z,4.86
2022-09-29T03:46:12.098Z,4.78
2022-09-29T03:48:39.574Z,4.73
2022-09-29T03:51:07.366Z,4.68
2022-09-29T03:53:37.790Z,4.81
2022-09-29T03:56:05.345Z,4.89
2022-09-29T03:58:32.582Z,4.95
2022-09-29T04:00:59.935Z,4.93
2022-09-29T04:03:28.141Z,4.91
2022-09-29T04:05:55.481Z,4.93
2022-09-29T04:08:22.720Z,4.87
2022-09-29T04:10:50.405Z,4.90
2022-09-29T04:13:20.262Z,4.89
2022-09-29T04:15:49.392Z,4.93
2022-09-29T04:18:16.807Z,4.99
2022-09-29T04:20:43.964Z,5.20
2022-09-29T04:23:11.118Z,5.19
2022-09-29T04:25:38.774Z,5.21
2022-09-29T04:28:06.145Z,5.20
2022-09-29T04:30:33.537Z,5.20
2022-09-29T04:33:00.977Z,5.15
2022-09-29T04:35:28.187Z,5.11
2022-09-29T04:37:59.991Z,5.07
2022-09-29T04:40:28.530Z,4.97
2022-09-29T04:42:55.788Z,5.00
2022-09-29T04:45:23.034Z,4.94
2022-09-29T04:47:50.297Z,4.89
2022-09-29T04:50:17.606Z,4.87
2022-09-29T04:52:45.019Z,4.83
2022-09-29T04:55:12.963Z,4.92
2022-09-29T04:57:41.353Z,4.93
2022-09-29T05:00:12.479Z,4.93
2022-09-29T05:02:40.033Z,4.98
2022-09-29T05:05:08.522Z,4.95
2022-09-29T05:07:36.771Z,4.92
2022-09-29T05:10:08.731Z,5.01
2022-09-29T05:12:36.103Z,5.00
2022-09-29T05:15:04.933Z,5.01
2022-09-29T05:17:33.851Z,5.05
2022-09-29T05:20:01.325Z,5.04
2022-09-29T05:22:28.787Z,5.12
2022-09-29T05:25:00.186Z,5.16
2022-09-29T05:27:27.797Z,5.19
2022-09-29T05:29:55.077Z,5.27
2022-09-29T05:32:22.465Z,5.40
2022-09-29T05:34:50.569Z,5.49
2022-09-29T05:37:18.438Z,5.48
2022-09-29T05:39:47.792Z,5.43
2022-09-29T05:42:14.942Z,5.38
2022-09-29T05:44:42.191Z,5.40
2022-09-29T05:47:09.640Z,5.42
2022-09-29T05:49:36.948Z,5.36
2022-09-29T05:52:04.288Z,5.33
2022-09-29T05:54:31.548Z,5.26
2022-09-29T05:56:58.855Z,5.21
2022-09-29T05:59:26.367Z,5.28
2022-09-29T06:01:53.659Z,5.30
2022-09-29T06:04:20.932Z,5.28
2022-09-29T06:06:48.456Z,5.26
2022-09-29T06:09:15.899Z,5.30
2022-09-29T06:11:44.270Z,5.38
2022-09-29T06:14:11.643Z,5.40
2022-09-29T06:16:38.970Z,5.40
2022-09-29T06:19:06.334Z,5.43
2022-09-29T06:21:37.995Z,5.44
2022-09-29T06:24:07.247Z,5.53
2022-09-29T06:26:34.968Z,5.55
2022-09-29T06:29:02.316Z,5.67
2022-09-29T06:31:31.427Z,5.84
2022-09-29T06:34:04.335Z,6.00
2022-09-29T06:36:57.451Z,6.19
2022-09-29T06:39:24.914Z,6.37
2022-09-29T06:41:54.433Z,6.43
2022-09-29T06:44:26.561Z,6.57
2022-09-29T06:46:55.009Z,6.61
2022-09-29T06:49:22.749Z,6.65
2022-09-29T06:51:51.003Z,6.76
2022-09-29T06:54:21.096Z,6.73
2022-09-29T06:56:52.282Z,6.70
2022-09-29T06:59:19.932Z,6.72
2022-09-29T07:01:50.981Z,6.86
2022-09-29T07:04:20.674Z,6.85
2022-09-29T07:06:49.090Z,6.88
2022-09-29T07:09:17.120Z,6.86
2022-09-29T07:11:46.885Z,6.88
2022-09-29T07:14:20.104Z,6.91
2022-09-29T07:16:48.754Z,6.94
2022-09-29T07:19:18.252Z,7.07
2022-09-29T07:21:47.405Z,7.17
2022-09-29T07:24:14.961Z,7.26
2022-09-29T07:26:42.370Z,7.32
2022-09-29T07:29:15.236Z,7.34
2022-09-29T07:31:50.836Z,7.44
2022-09-29T07:34:20.427Z,7.45
2022-09-29T07:36:47.661Z,7.49
2022-09-29T07:39:15.032Z,7.57
2022-09-29T07:41:42.492Z,7.71
2022-09-29T07:44:09.767Z,7.91
2022-09-29T07:46:37.038Z,8.14
2022-09-29T07:49:04.275Z,8.40
2022-09-29T07:51:32.814Z,8.75
2022-09-29T07:54:04.632Z,9.04
2022-09-29T07:56:32.941Z,9.00
2022-09-29T07:59:02.442Z,8.72
2022-09-29T08:01:30.010Z,8.53
2022-09-29T08:03:57.881Z,8.69
2022-09-29T08:06:26.932Z,8.80
2022-09-29T08:09:03.220Z,8.89
2022-09-29T08:11:34.309Z,9.17
2022-09-29T08:14:02.168Z,9.27
2022-09-29T08:16:30.003Z,9.50
2022-09-29T08:18:58.048Z,9.55
2022-09-29T08:21:25.480Z,9.57
2022-09-29T08:23:52.941Z,9.50
2022-09-29T08:26:36.461Z,9.63
2022-09-29T08:29:08.782Z,9.76
2022-09-29T08:31:39.972Z,9.83
2022-09-29T08:34:07.409Z,10.01
2022-09-29T08:36:34.754Z,10.09
2022-09-29T08:39:02.344Z,10.14
2022-09-29T08:41:58.145Z,10.30
2022-09-29T08:44:41.886Z,10.38
2022-09-29T08:47:22.086Z,10.48
2022-09-29T08:49:56.741Z,10.21
2022-09-29T08:52:46.251Z,10.16
2022-09-29T08:55:21.015Z,10.42
2022-09-29T08:57:58.154Z,10.13
2022-09-29T09:00:48.589Z,10.12
2022-09-29T09:03:32.408Z,10.17
2022-09-29T09:06:02.611Z,10.47
2022-09-29T09:08:54.592Z,10.73
2022-09-29T09:11:45.998Z,10.92
2022-09-29T09:14:36.211Z,11.21
2022-09-29T09:17:19.532Z,11.20
2022-09-29T09:20:16.349Z,11.53
2022-09-29T09:23:13.710Z,11.50
2022-09-29T09:25:49.599Z,11.69
2022-09-29T09:28:27.268Z,11.46
2022-09-29T09:31:01.096Z,11.53
2022-09-29T09:34:00.330Z,11.66
2022-09-29T09:36:42.507Z,11.75
2022-09-29T09:39:25.573Z,11.93
2022-09-29T09:41:57.882Z,11.94
2022-09-29T09:44:39.084Z,12.10
2022-09-29T09:47:29.774Z,12.13
2022-09-29T09:50:15.491Z,12.52
2022-09-29T09:53:05.593Z,12.61
2022-09-29T09:55:36.955Z,12.70
2022-09-29T09:58:40.665Z,12.65
2022-09-29T10:01:09.001Z,12.80
2022-09-29T10:03:37.173Z,13.01
2022-09-29T10:06:07.557Z,12.97
2022-09-29T10:08:39.850Z,12.79
2022-09-29T10:11:19.271Z,12.98
2022-09-29T10:13:47.337Z,13.03
2022-09-29T10:16:24.195Z,13.18
2022-09-29T10:18:54.428Z,13.20
2022-09-29T10:21:31.271Z,13.27
2022-09-29T10:24:02.401Z,13.20
2022-09-29T10:26:33.511Z,13.37
2022-09-29T10:29:23.772Z,13.68
2022-09-29T10:32:01.960Z,13.80
2022-09-29T10:34:31.080Z,13.87
2022-09-29T10:37:18.166Z,13.57
2022-09-29T10:39:48.430Z,13.06
2022-09-29T10:42:20.546Z,12.65
2022-09-29T10:45:01.985Z,12.34
2022-09-29T10:47:29.724Z,12.74
2022-09-29T10:50:21.427Z,12.82
2022-09-29T10:52:55.825Z,12.79
2022-09-29T10:55:28.727Z,12.92
2022-09-29T10:58:00.353Z,12.93
2022-09-29T11:00:35.717Z,13.01
2022-09-29T11:03:16.712Z,13.00
2022-09-29T11:06:02.081Z,13.25
2022-09-29T11:08:30.892Z,13.75
2022-09-29T11:11:22.705Z,14.04
2022-09-29T11:13:52.771Z,13.95
2022-09-29T11:16:51.967Z,13.71
2022-09-29T11:19:19.412Z,13.88
2022-09-29T11:21:52.631Z,13.59
2022-09-29T11:24:35.270Z,13.34
2022-09-29T11:27:42.690Z,12.83
2022-09-29T11:30:55.701Z,12.72
2022-09-29T11:33:38.083Z,12.67
2022-09-29T11:36:30.304Z,12.52
2022-09-29T11:39:14.681Z,12.21
2022-09-29T11:41:58.053Z,12.10
2022-09-29T11:44:37.081Z,12.05
2022-09-29T11:47:10.214Z,12.16
2022-09-29T11:50:13.809Z,12.23
2022-09-29T11:52:56.569Z,12.37
2022-09-29T11:55:39.054Z,12.69
2022-09-29T11:58:35.534Z,12.76
2022-09-29T12:01:34.993Z,12.73
2022-09-29T12:04:23.453Z,12.58
2022-09-29T12:06:55.006Z,12.64
2022-09-29T12:09:33.971Z,13.11
2022-09-29T12:12:24.404Z,13.36
2022-09-29T12:15:01.081Z,13.53
2022-09-29T12:17:34.995Z,13.51
2022-09-29T12:20:20.793Z,13.43
2022-09-29T12:22:51.115Z,13.07
2022-09-29T12:25:25.041Z,12.75
2022-09-29T12:27:59.166Z,12.36
2022-09-29T12:30:30.181Z,12.11
2022-09-29T12:33:03.156Z,12.04
2022-09-29T12:35:48.945Z,12.39
2022-09-29T12:38:23.005Z,12.70
2022-09-29T12:41:07.605Z,13.10
2022-09-29T12:44:29.611Z,13.24
2022-09-29T12:47:16.456Z,12.99
2022-09-29T12:50:14.132Z,12.88
2022-09-29T12:52:55.472Z,12.96
2022-09-29T12:56:10.634Z,13.16
2022-09-29T12:58:44.585Z,13.15
2022-09-29T13:01:44.485Z,13.22
2022-09-29T13:04:43.044Z,13.07
2022-09-29T13:07:19.476Z,13.09
2022-09-29T13:09:58.997Z,13.27
2022-09-29T13:13:00.447Z,13.46
2022-09-29T13:15:33.903Z,13.35
2022-09-29T13:18:06.985Z,13.14
2022-09-29T13:20:46.416Z,13.08
2022-09-29T13:23:25.000Z,12.91
2022-09-29T13:26:21.662Z,12.96
2022-09-29T13:28:54.402Z,12.84
2022-09-29T13:31:28.920Z,12.72
2022-09-29T13:34:02.252Z,12.72
2022-09-29T13:36:36.726Z,12.95
2022-09-29T13:39:07.146Z,13.21
2022-09-29T13:41:40.462Z,13.54
2022-09-29T13:44:16.997Z,13.76
2022-09-29T13:46:44.403Z,13.59
2022-09-29T13:49:14.568Z,13.42
2022-09-29T13:52:28.267Z,13.49
2022-09-29T13:54:55.721Z,13.33
2022-09-29T13:57:27.719Z,13.28
2022-09-29T13:59:55.754Z,13.27
2022-09-29T14:03:01.510Z,13.37
2022-09-29T14:05:28.674Z,13.32
2022-09-29T14:07:58.822Z,13.29
2022-09-29T14:10:26.123Z,13.35
2022-09-29T14:13:12.635Z,13.38
2022-09-29T14:15:51.228Z,13.47
2022-09-29T14:18:56.895Z,13.69
2022-09-29T14:21:48.039Z,13.89
2022-09-29T14:24:37.428Z,14.10
2022-09-29T14:27:21.847Z,14.27
2022-09-29T14:30:03.915Z,14.27
2022-09-29T14:32:55.772Z,14.33
2022-09-29T14:35:36.301Z,14.24
2022-09-29T14:38:10.584Z,14.22
2022-09-29T14:40:37.855Z,14.26
2022-09-29T14:43:34.132Z,14.41
2022-09-29T14:46:25.945Z,14.16
2022-09-29T14:49:48.766Z,14.13
2022-09-29T14:52:41.043Z,14.14
2022-09-29T14:55:17.660Z,14.01
2022-09-29T14:58:06.105Z,14.30
2022-09-29T15:01:10.754Z,14.46
2022-09-29T15:03:52.681Z,14.41
2022-09-29T15:06:22.605Z,14.30
2022-09-29T15:09:01.956Z,14.30
2022-09-29T15:11:37.015Z,14.23
2022-09-29T15:14:24.391Z,14.22
2022-09-29T15:17:19.588Z,14.37
2022-09-29T15:20:51.237Z,14.25
2022-09-29T15:23:44.580Z,14.00
2022-09-29T15:26:16.218Z,13.80
2022-09-29T15:28:44.104Z,13.60
2022-09-29T15:31:16.602Z,13.61
2022-09-29T15:33:45.691Z,13.34
2022-09-29T15:36:22.112Z,13.21
2022-09-29T15:39:02.945Z,13.14
2022-09-29T15:41:33.631Z,13.07
2022-09-29T15:44:04.344Z,12.90
2022-09-29T15:46:41.588Z,12.76
2022-09-29T15:49:23.188Z,12.63
2022-09-29T15:52:00.879Z,12.51
2022-09-29T15:57:53.488Z,12.30
2022-09-29T16:00:23.815Z,12.18
2022-09-29T16:02:54.360Z,12.02
2022-09-29T16:05:23.617Z,11.85
2022-09-29T16:08:03.254Z,11.81
2022-09-29T16:10:42.634Z,11.67
2022-09-29T16:13:21.826Z,11.55
2022-09-29T16:15:50.976Z,11.48
2022-09-29T16:18:33.208Z,11.37
2022-09-29T16:21:07.201Z,11.26
2022-09-29T16:23:48.650Z,11.18
2022-09-29T16:26:28.325Z,11.14
2022-09-29T16:29:11.048Z,11.23
2022-09-29T16:31:41.150Z,11.25
2022-09-29T16:34:20.921Z,11.11
2022-09-29T16:36:55.638Z,10.94
2022-09-29T16:39:44.168Z,10.81
2022-09-29T16:42:18.002Z,10.79
2022-09-29T16:44:45.520Z,10.76
2022-09-29T16:47:33.255Z,10.69
2022-09-29T16:50:05.027Z,10.62
2022-09-29T16:52:43.942Z,10.61
2022-09-29T16:55:27.917Z,10.60
2022-09-29T16:58:13.177Z,10.52
2022-09-29T17:00:41.236Z,10.38
2022-09-29T17:03:09.726Z,10.34
2022-09-29T17:05:43.634Z,10.25
2022-09-29T17:08:16.266Z,10.27
2022-09-29T17:10:43.564Z,10.20
2022-09-29T17:13:15.874Z,10.06
2022-09-29T17:15:46.741Z,10.02
2022-09-29T17:18:16.359Z,10.00
2022-09-29T17:20:44.358Z,10.12
2022-09-29T17:23:11.710Z,10.17
2022-09-29T17:25:42.022Z,10.18
2022-09-29T17:28:24.572Z,10.13
2022-09-29T17:30:52.591Z,10.14
2022-09-29T17:33:20.199Z,10.15
2022-09-29T17:35:55.226Z,10.17
2022-09-29T17:38:24.150Z,10.10
2022-09-29T17:40:57.169Z,10.08
2022-09-29T17:43:24.689Z,10.09
2022-09-29T17:45:54.521Z,9.98
2022-09-29T17:48:22.355Z,9.88
2022-09-29T17:50:51.412Z,9.83
2022-09-29T17:53:19.288Z,9.77
2022-09-29T17:55:49.598Z,9.76
2022-09-29T17:58:18.950Z,9.74
2022-09-29T18:00:51.594Z,9.73
2022-09-29T18:03:20.669Z,9.68
2022-09-29T18:05:56.372Z,9.63
2022-09-29T18:08:26.708Z,9.66
2022-09-29T18:10:56.530Z,9.60
2022-09-29T18:13:27.382Z,9.60
2022-09-29T18:15:55.542Z,9.61
2022-09-29T18:18:23.799Z,9.60
2022-09-29T18:20:52.524Z,9.58
2022-09-29T18:23:21.881Z,9.61
2022-09-29T18:25:50.858Z,9.63
2022-09-29T18:28:18.832Z,9.62
2022-09-29T18:30:47.711Z,9.62
2022-09-29T18:33:16.976Z,9.61
2022-09-29T18:35:47.377Z,9.63
2022-09-29T18:38:14.755Z,9.63
2022-09-29T18:40:42.003Z,9.63
2022-09-29T18:43:12.867Z,9.63
2022-09-29T18:45:44.083Z,9.63
2022-09-29T18:48:12.905Z,9.71
2022-09-29T18:50:45.595Z,9.71
2022-09-29T18:53:16.370Z,9.68
2022-09-29T18:55:44.367Z,9.64
2022-09-29T18:58:15.712Z,9.63
2022-09-29T19:00:46.466Z,9.58
2022-09-29T19:03:13.832Z,9.57
2022-09-29T19:05:42.514Z,9.61
2022-09-29T19:08:12.572Z,9.60
2022-09-29T19:10:42.187Z,9.58
2022-09-29T19:13:14.047Z,9.67
2022-09-29T19:15:42.875Z,9.74
2022-09-29T19:18:15.982Z,9.76
2022-09-29T19:20:43.282Z,9.81
2022-09-29T19:23:10.448Z,9.78
2022-09-29T19:25:40.053Z,9.76
2022-09-29T19:28:08.100Z,9.73
2022-09-29T19:30:38.973Z,9.68
2022-09-29T19:33:09.301Z,9.65
2022-09-29T19:35:37.287Z,9.68
2022-09-29T19:38:05.238Z,9.71
2022-09-29T19:40:34.561Z,9.69
2022-09-29T19:43:05.826Z,9.69
2022-09-29T19:45:40.261Z,9.76
2022-09-29T19:48:10.464Z,9.69
2022-09-29T19:50:55.940Z,9.61
2022-09-29T19:53:23.109Z,9.55
2022-09-29T19:55:50.914Z,9.45
2022-09-29T19:58:18.108Z,9.44
2022-09-29T20:00:45.315Z,9.35
2022-09-29T20:03:12.633Z,9.33
2022-09-29T20:05:40.195Z,9.41
2022-09-29T20:08:07.853Z,9.38
2022-09-29T20:10:36.562Z,9.42
2022-09-29T20:13:03.930Z,9.40
2022-09-29T20:15:31.305Z,9.34
2022-09-29T20:17:58.527Z,9.32
2022-09-29T20:20:25.692Z,9.35
2022-09-29T20:22:53.579Z,9.39
2022-09-29T20:25:21.143Z,9.45
2022-09-29T20:27:51.818Z,9.36
2022-09-29T20:30:20.896Z,9.26
2022-09-29T20:32:48.202Z,9.29
2022-09-29T20:35:15.778Z,9.25
2022-09-29T20:37:43.163Z,9.21
2022-09-29T20:40:10.627Z,9.13
2022-09-29T20:42:38.466Z,9.04
2022-09-29T20:45:05.920Z,9.05
2022-09-29T20:47:33.114Z,9.05
2022-09-29T20:50:00.272Z,8.98
2022-09-29T20:52:27.601Z,8.90
2022-09-29T20:54:55.391Z,8.89
2022-09-29T20:57:22.635Z,8.82
2022-09-29T20:59:50.074Z,8.78
2022-09-29T21:02:17.597Z,8.71
2022-09-29T21:04:45.049Z,8.74
2022-09-29T21:07:31.047Z,8.66
2022-09-29T21:10:03.821Z,8.60
2022-09-29T21:12:34.425Z,8.64
2022-09-29T21:15:02.369Z,8.57
2022-09-29T21:17:30.288Z,8.60
2022-09-29T21:19:57.665Z,8.61
2022-09-29T21:22:27.661Z,8.57
2022-09-29T21:24:55.440Z,8.54
2022-09-29T21:27:22.865Z,8.57
2022-09-29T21:29:50.384Z,8.52
2022-09-29T21:32:17.729Z,8.55
2022-09-29T21:34:44.937Z,8.56
2022-09-29T21:37:12.118Z,8.62
2022-09-29T21:39:39.288Z,8.61
2022-09-29T21:42:06.438Z,8.57
2022-09-29T21:44:34.001Z,8.55
2022-09-29T21:47:01.257Z,8.49
2022-09-29T21:49:28.503Z,8.43
2022-09-29T21:51:57.977Z,8.43
2022-09-29T21:54:30.254Z,8.32
2022-09-29T21:56:57.482Z,8.29
2022-09-29T21:59:26.201Z,8.27
2022-09-29T22:01:53.523Z,8.26
2022-09-29T22:04:21.209Z,8.26
2022-09-29T22:06:48.865Z,8.23
2022-09-29T22:09:19.293Z,8.21
2022-09-29T22:11:48.579Z,8.13
2022-09-29T22:14:16.752Z,8.13
2022-09-29T22:16:44.459Z,8.05
2022-09-29T22:19:22.856Z,7.99
2022-09-29T22:21:51.470Z,7.90
2022-09-29T22:24:18.613Z,7.96
2022-09-29T22:26:45.825Z,8.04
2022-09-29T22:29:13.443Z,7.98
2022-09-29T22:31:41.131Z,8.00
2022-09-29T22:34:09.063Z,7.97
2022-09-29T22:36:36.348Z,7.87
2022-09-29T22:39:05.398Z,7.95
2022-09-29T22:41:33.260Z,7.92
2022-09-29T22:44:00.967Z,7.92
2022-09-29T22:46:29.990Z,7.85
2022-09-29T22:48:58.143Z,7.84
2022-09-29T22:51:25.385Z,7.83
2022-09-29T22:53:52.594Z,7.78
2022-09-29T22:56:27.996Z,7.81
2022-09-29T22:58:59.253Z,7.81
2022-09-29T23:01:27.051Z,7.85
2022-09-29T23:03:54.425Z,7.82
2022-09-29T23:06:21.673Z,7.75
2022-09-29T23:08:49.149Z,7.70
2022-09-29T23:11:19.523Z,7.72
2022-09-29T23:13:47.287Z,7.76
2022-09-29T23:16:16.581Z,7.67
2022-09-29T23:18:45.518Z,7.72
2022-09-29T23:21:19.492Z,7.68
2022-09-29T23:23:58.180Z,7.61
2022-09-29T23:26:26.731Z,7.57
2022-09-29T23:28:55.292Z,7.60
2022-09-29T23:31:22.987Z,7.60
2022-09-29T23:33:58.128Z,7.55
2022-09-29T23:36:30.942Z,7.51
2022-09-29T23:39:10.555Z,7.50
2022-09-29T23:41:43.320Z,7.56
2022-09-29T23:44:13.580Z,7.51
2022-09-29T23:46:42.627Z,7.43
2022-09-29T23:49:14.768Z,7.35
2022-09-29T23:51:45.792Z,7.36
2022-09-29T23:54:16.154Z,7.35
2022-09-29T23:56:44.011Z,7.38
2022-09-29T23:59:11.339Z,7.31
